createdAt,value
2019-02-05T00:02:25.851Z,5.17
2019-02-05T00:05:16.211Z,4.80
2019-02-05T00:07:59.286Z,4.73
2019-02-05T00:10:49.871Z,4.77
2019-02-05T00:13:32.577Z,5.13
2019-02-05T00:16:22.968Z,4.70
2019-02-05T00:19:05.809Z,4.73
2019-02-05T00:21:56.220Z,4.77
2019-02-05T00:24:39.268Z,4.77
2019-02-05T00:27:29.620Z,5.03
2019-02-05T00:30:12.455Z,4.60
2019-02-05T00:33:15.809Z,5.33
2019-02-05T00:38:58.533Z,5.13
2019-02-05T00:41:48.960Z,6.20
2019-02-05T00:44:39.354Z,5.20
2019-02-05T00:47:21.917Z,5.37
2019-02-05T00:50:12.497Z,5.33
2019-02-05T00:52:55.176Z,6.23
2019-02-05T00:55:45.553Z,6.00
2019-02-05T00:58:28.832Z,6.13
2019-02-05T01:01:19.240Z,5.90
2019-02-05T01:04:09.555Z,5.97
2019-02-05T01:06:52.619Z,5.80
2019-02-05T01:09:42.981Z,6.40
2019-02-05T01:12:26.411Z,6.30
2019-02-05T01:18:45.664Z,5.80
2019-02-05T01:21:36.030Z,5.93
2019-02-05T01:24:26.392Z,6.23
2019-02-05T01:27:09.199Z,5.97
2019-02-05T01:29:52.087Z,6.40
2019-02-05T01:35:44.319Z,5.63
2019-02-05T01:38:34.687Z,5.97
2019-02-05T01:41:17.739Z,6.20
2019-02-05T01:47:36.611Z,6.40
2019-02-05T01:53:49.543Z,5.43
2019-02-05T01:56:40.422Z,6.00
2019-02-05T01:59:25.097Z,5.97
2019-02-05T02:02:07.823Z,6.13
2019-02-05T02:04:58.203Z,5.67
2019-02-05T02:07:41.018Z,6.40
2019-02-05T02:10:24.689Z,6.00
2019-02-05T02:13:15.029Z,6.70
2019-02-05T02:15:58.049Z,6.40
2019-02-05T02:18:48.426Z,7.03
2019-02-05T02:21:31.207Z,6.67
2019-02-05T02:24:21.600Z,6.63
2019-02-05T02:27:04.772Z,7.20
2019-02-05T02:29:55.166Z,6.97
2019-02-05T02:32:38.100Z,6.97
2019-02-05T02:35:28.489Z,7.27
2019-02-05T02:38:11.774Z,6.63
2019-02-05T02:41:02.136Z,7.07
2019-02-05T02:43:45.398Z,6.93
2019-02-05T02:46:35.771Z,7.53
2019-02-05T02:49:18.971Z,7.53
2019-02-05T02:52:09.315Z,7.03
2019-02-05T02:54:52.729Z,6.73
2019-02-05T02:57:44.969Z,7.97
2019-02-05T03:00:27.586Z,6.93
2019-02-05T03:03:17.944Z,7.97
2019-02-05T03:06:00.771Z,7.30
2019-02-05T03:08:51.108Z,7.03
2019-02-05T03:11:34.492Z,6.80
2019-02-05T03:14:24.880Z,7.23
2019-02-05T03:17:07.658Z,7.23
2019-02-05T03:19:58.018Z,7.67
2019-02-05T03:22:41.535Z,7.10
2019-02-05T03:25:33.625Z,8.03
2019-02-05T03:28:16.604Z,7.60
2019-02-05T03:31:07.004Z,7.40
2019-02-05T03:33:50.360Z,7.83
2019-02-05T03:36:40.767Z,8.23
2019-02-05T03:39:45.101Z,7.73
2019-02-05T03:42:35.468Z,7.97
2019-02-05T03:45:18.707Z,7.10
2019-02-05T03:48:09.203Z,7.43
2019-02-05T03:50:54.217Z,7.27
2019-02-05T03:54:25.143Z,7.80
2019-02-05T03:57:32.086Z,7.37
2019-02-05T04:04:01.136Z,7.30
2019-02-05T04:07:29.550Z,8.17
2019-02-05T04:10:37.816Z,7.40
2019-02-05T04:14:06.324Z,7.80
2019-02-05T04:16:55.602Z,7.93
2019-02-05T04:20:13.413Z,7.73
2019-02-05T04:23:21.488Z,7.63
2019-02-05T04:26:38.727Z,7.83
2019-02-05T04:29:43.883Z,7.60
2019-02-05T04:33:12.353Z,7.63
2019-02-05T04:36:01.471Z,8.10
2019-02-05T04:39:29.919Z,7.50
2019-02-05T04:42:17.830Z,7.77
2019-02-05T04:49:49.044Z,7.87
2019-02-05T04:52:51.200Z,7.63
2019-02-05T04:56:19.657Z,8.50
2019-02-05T04:59:21.357Z,8.00
2019-02-05T05:02:23.204Z,8.20
2019-02-05T05:05:25.291Z,8.60
2019-02-05T05:08:53.755Z,8.50
2019-02-05T05:11:36.301Z,8.43
2019-02-05T05:14:26.741Z,9.40
2019-02-05T05:17:09.274Z,8.90
2019-02-05T05:19:59.623Z,9.13
2019-02-05T05:22:42.414Z,9.70
2019-02-05T05:25:32.906Z,9.13
2019-02-05T05:28:16.341Z,9.90
2019-02-05T05:31:06.745Z,10.20
2019-02-05T05:33:49.976Z,10.23
2019-02-05T05:36:49.332Z,9.47
2019-02-05T05:39:31.915Z,10.37
2019-02-05T05:42:22.313Z,10.03
2019-02-05T05:45:05.781Z,10.17
2019-02-05T05:47:56.214Z,9.40
2019-02-05T05:50:38.842Z,9.87
2019-02-05T05:53:29.211Z,10.23
2019-02-05T05:56:12.477Z,10.57
2019-02-05T05:59:02.882Z,9.97
2019-02-05T06:01:46.211Z,9.87
2019-02-05T06:04:36.609Z,10.60
2019-02-05T06:07:19.764Z,11.33
2019-02-05T06:10:11.045Z,10.83
2019-02-05T06:12:53.736Z,12.07
2019-02-05T06:15:44.136Z,10.90
2019-02-05T06:18:50.107Z,11.40
2019-02-05T06:21:40.527Z,11.80
2019-02-05T06:24:43.842Z,11.07
2019-02-05T06:27:34.198Z,11.50
2019-02-05T06:30:17.409Z,11.57
2019-02-05T06:33:07.879Z,12.07
2019-02-05T06:36:12.721Z,11.43
2019-02-05T06:42:13.324Z,11.43
2019-02-05T06:45:05.707Z,13.00
2019-02-05T06:47:48.685Z,11.93
2019-02-05T06:50:39.062Z,13.13
2019-02-05T06:53:21.596Z,12.53
2019-02-05T06:56:11.982Z,12.77
2019-02-05T06:59:16.713Z,13.27
2019-02-05T07:02:27.544Z,13.57
2019-02-05T07:05:11.014Z,14.23
2019-02-05T07:08:01.570Z,13.57
2019-02-05T07:10:44.743Z,12.50
2019-02-05T07:13:35.184Z,14.03
2019-02-05T07:16:25.581Z,13.33
2019-02-05T07:19:08.382Z,14.43
2019-02-05T07:21:58.790Z,14.07
2019-02-05T07:24:42.144Z,14.10
2019-02-05T07:27:32.555Z,14.10
2019-02-05T07:30:19.673Z,14.30
2019-02-05T07:33:10.209Z,14.20
2019-02-05T07:36:14.551Z,13.87
2019-02-05T07:39:27.524Z,13.80
2019-02-05T07:42:30.194Z,14.57
2019-02-05T07:45:40.056Z,15.03
2019-02-05T07:48:22.797Z,14.83
2019-02-05T07:51:13.194Z,16.03
2019-02-05T07:53:55.943Z,15.97
2019-02-05T07:56:46.299Z,15.37
2019-02-05T07:59:29.612Z,16.33
2019-02-05T08:02:19.996Z,15.40
2019-02-05T08:05:03.045Z,15.40
2019-02-05T08:07:53.490Z,17.07
2019-02-05T08:10:36.972Z,15.47
2019-02-05T08:13:27.469Z,16.97
2019-02-05T08:16:10.919Z,16.87
2019-02-05T08:19:01.311Z,16.70
2019-02-05T08:21:44.830Z,15.57
2019-02-05T08:24:35.232Z,16.33
2019-02-05T08:27:18.396Z,16.03
2019-02-05T08:30:14.216Z,17.00
2019-02-05T08:32:57.137Z,16.67
2019-02-05T08:35:47.526Z,15.77
2019-02-05T08:38:30.566Z,16.73
2019-02-05T08:41:20.966Z,16.77
2019-02-05T08:44:04.190Z,17.17
2019-02-05T08:46:54.844Z,16.13
2019-02-05T08:49:37.860Z,16.27
2019-02-05T08:52:28.258Z,17.30
2019-02-05T08:55:12.576Z,16.20
2019-02-05T08:58:05.477Z,16.40
2019-02-05T09:00:48.673Z,15.53
2019-02-05T09:03:39.093Z,17.30
2019-02-05T09:06:22.301Z,17.10
2019-02-05T09:09:12.685Z,16.13
2019-02-05T09:11:56.037Z,16.87
2019-02-05T09:14:46.640Z,16.10
2019-02-05T09:17:29.566Z,16.77
2019-02-05T09:20:20.048Z,15.60
2019-02-05T09:23:03.102Z,16.93
2019-02-05T09:25:53.527Z,17.23
2019-02-05T09:28:43.925Z,15.97
2019-02-05T09:31:34.337Z,16.80
2019-02-05T09:34:40.872Z,15.70
2019-02-05T09:37:31.045Z,16.10
2019-02-05T09:40:15.980Z,15.50
2019-02-05T09:43:06.552Z,16.37
2019-02-05T09:46:11.059Z,15.60
2019-02-05T09:49:01.446Z,15.17
2019-02-05T09:51:44.856Z,16.37
2019-02-05T09:54:35.281Z,15.57
2019-02-05T09:57:18.030Z,16.07
2019-02-05T10:00:49.210Z,15.13
2019-02-05T10:03:32.754Z,13.83
2019-02-05T10:06:15.494Z,14.67
2019-02-05T10:12:22.482Z,15.17
2019-02-05T10:15:33.050Z,14.90
2019-02-05T10:18:37.310Z,13.00
2019-02-05T10:21:27.691Z,11.77
2019-02-05T10:24:11.169Z,12.43
2019-02-05T10:27:01.531Z,11.17
2019-02-05T10:29:44.415Z,10.80
2019-02-05T10:32:34.800Z,11.03
2019-02-05T10:35:18.475Z,13.10
2019-02-05T10:41:11.385Z,12.70
2019-02-05T10:44:01.791Z,12.10
2019-02-05T10:46:44.735Z,12.13
2019-02-05T10:49:35.381Z,12.33
2019-02-05T10:52:18.026Z,12.27
2019-02-05T10:55:10.001Z,12.67
2019-02-05T10:57:53.271Z,12.30
2019-02-05T11:00:43.656Z,13.20
2019-02-05T11:03:46.857Z,13.00
2019-02-05T11:06:37.232Z,12.37
2019-02-05T11:09:20.717Z,12.00
2019-02-05T11:12:11.111Z,12.00
2019-02-05T11:15:16.758Z,11.60
2019-02-05T11:21:37.912Z,10.87
2019-02-05T11:24:28.316Z,11.07
2019-02-05T11:27:11.765Z,11.10
2019-02-05T11:30:02.127Z,11.40
2019-02-05T11:32:44.864Z,11.97
2019-02-05T11:35:35.269Z,11.93
2019-02-05T11:38:18.144Z,10.87
2019-02-05T11:41:08.535Z,11.03
2019-02-05T11:44:13.572Z,11.93
2019-02-05T11:47:04.131Z,11.33
2019-02-05T11:49:47.377Z,10.70
2019-02-05T11:52:37.729Z,12.57
2019-02-05T11:55:22.163Z,11.93
2019-02-05T11:58:12.914Z,11.43
2019-02-05T12:04:23.169Z,11.03
2019-02-05T12:07:13.568Z,11.07
2019-02-05T12:13:40.469Z,11.77
2019-02-05T12:16:23.392Z,11.53
2019-02-05T12:19:13.855Z,11.37
2019-02-05T12:21:56.731Z,11.40
2019-02-05T12:24:47.117Z,11.70
2019-02-05T12:27:29.731Z,11.60
2019-02-05T12:34:10.202Z,12.17
2019-02-05T12:37:01.507Z,12.67
2019-02-05T12:39:51.952Z,13.57
2019-02-05T12:42:35.279Z,14.00
2019-02-05T12:45:27.572Z,14.10
2019-02-05T12:48:10.360Z,14.53
2019-02-05T12:51:00.724Z,14.07
2019-02-05T12:53:43.653Z,14.70
2019-02-05T12:56:34.033Z,14.57
2019-02-05T12:59:17.584Z,15.13
2019-02-05T13:05:37.013Z,14.50
2019-02-05T13:08:27.350Z,15.13
2019-02-05T13:11:17.784Z,15.63
2019-02-05T13:14:08.425Z,16.07
2019-02-05T13:16:51.399Z,16.60
2019-02-05T13:19:41.745Z,17.20
2019-02-05T13:22:25.213Z,17.43
2019-02-05T13:25:18.150Z,15.90
2019-02-05T13:28:00.915Z,16.57
2019-02-05T13:30:51.297Z,16.97
2019-02-05T13:33:34.851Z,16.13
2019-02-05T13:36:25.233Z,14.80
2019-02-05T13:39:11.859Z,16.17
2019-02-05T13:42:02.227Z,16.77
2019-02-05T13:44:45.215Z,16.37
2019-02-05T13:47:35.627Z,17.47
2019-02-05T13:50:19.562Z,16.90
2019-02-05T13:53:02.899Z,16.53
2019-02-05T13:55:53.305Z,17.13
2019-02-05T13:58:43.677Z,16.33
2019-02-05T14:01:26.243Z,16.63
2019-02-05T14:04:09.317Z,16.87
2019-02-05T14:06:59.705Z,17.83
2019-02-05T14:09:42.940Z,16.77
2019-02-05T14:12:33.313Z,16.73
2019-02-05T14:15:16.214Z,17.10
2019-02-05T14:18:27.332Z,18.00
2019-02-05T14:21:10.394Z,18.57
2019-02-05T14:24:00.797Z,18.17
2019-02-05T14:26:43.952Z,18.00
2019-02-05T14:33:02.029Z,18.63
2019-02-05T14:35:52.461Z,18.70
2019-02-05T14:38:42.940Z,19.30
2019-02-05T14:41:25.506Z,19.23
2019-02-05T14:44:08.680Z,20.90
2019-02-05T14:46:59.083Z,20.60
2019-02-05T14:49:41.955Z,20.60
2019-02-05T14:52:32.412Z,20.10
2019-02-05T14:55:15.597Z,19.37
2019-02-05T14:58:07.598Z,19.33
2019-02-05T15:01:12.029Z,20.17
2019-02-05T15:04:02.440Z,19.53
2019-02-05T15:06:45.773Z,20.50
2019-02-05T15:09:36.177Z,20.70
2019-02-05T15:12:40.858Z,20.17
2019-02-05T15:18:24.693Z,19.40
2019-02-05T15:21:15.084Z,20.07
2019-02-05T15:24:06.131Z,20.10
2019-02-05T15:26:48.718Z,20.13
2019-02-05T15:29:39.412Z,20.60
2019-02-05T15:32:41.018Z,19.27
2019-02-05T15:35:31.543Z,19.67
2019-02-05T15:38:14.464Z,20.57
2019-02-05T15:41:04.872Z,20.40
2019-02-05T15:43:47.447Z,19.43
2019-02-05T15:46:37.876Z,20.10
2019-02-05T15:49:20.852Z,20.17
2019-02-05T15:52:11.235Z,20.53
2019-02-05T15:54:54.545Z,20.63
2019-02-05T15:57:37.303Z,20.90
2019-02-05T16:00:27.883Z,21.07
2019-02-05T16:03:10.916Z,21.20
2019-02-05T16:06:01.285Z,21.03
2019-02-05T16:08:44.564Z,20.40
2019-02-05T16:11:34.959Z,19.10
2019-02-05T16:14:17.892Z,19.80
2019-02-05T16:17:08.317Z,18.83
2019-02-05T16:19:51.210Z,20.17
2019-02-05T16:22:41.738Z,19.07
2019-02-05T16:25:25.092Z,18.60
2019-02-05T16:28:15.786Z,19.47
2019-02-05T16:31:18.504Z,18.97
2019-02-05T16:34:08.879Z,19.37
2019-02-05T16:36:51.468Z,18.63
2019-02-05T16:39:41.841Z,18.30
2019-02-05T16:42:25.106Z,17.83
2019-02-05T16:45:17.756Z,18.03
2019-02-05T16:48:00.691Z,18.03
2019-02-05T16:50:51.075Z,18.40
2019-02-05T16:53:34.730Z,18.10
2019-02-05T16:56:18.044Z,18.17
2019-02-05T16:59:08.473Z,17.63
2019-02-05T17:01:51.298Z,17.00
2019-02-05T17:04:41.692Z,17.43
2019-02-05T17:07:24.528Z,17.70
2019-02-05T17:13:45.458Z,17.10
2019-02-05T17:16:36.036Z,16.63
2019-02-05T17:19:19.766Z,18.03
2019-02-05T17:22:10.251Z,17.47
2019-02-05T17:24:52.973Z,17.07
2019-02-05T17:27:43.389Z,18.00
2019-02-05T17:30:27.983Z,17.47
2019-02-05T17:33:18.375Z,18.03
2019-02-05T17:36:23.392Z,19.67
2019-02-05T17:39:14.373Z,17.67
2019-02-05T17:41:57.319Z,18.87
2019-02-05T17:44:47.710Z,18.37
2019-02-05T17:47:52.220Z,18.13
2019-02-05T17:50:42.709Z,18.77
2019-02-05T17:53:25.617Z,19.20
2019-02-05T17:56:16.024Z,19.67
2019-02-05T17:59:20.719Z,19.87
2019-02-05T18:02:11.106Z,20.23
2019-02-05T18:04:54.075Z,20.33
2019-02-05T18:07:44.617Z,20.13
2019-02-05T18:10:49.651Z,20.23
2019-02-05T18:13:40.080Z,19.97
2019-02-05T18:16:30.474Z,19.93
2019-02-05T18:19:13.416Z,20.00
2019-02-05T18:22:04.089Z,19.70
2019-02-05T18:24:47.233Z,19.87
2019-02-05T18:27:37.630Z,19.93
2019-02-05T18:30:21.613Z,20.50
2019-02-05T18:33:12.002Z,17.77
2019-02-05T18:35:55.491Z,19.10
2019-02-05T18:38:45.865Z,18.33
2019-02-05T18:41:48.839Z,17.77
2019-02-05T18:44:39.358Z,18.17
2019-02-05T18:47:22.085Z,18.10
2019-02-05T18:50:15.369Z,17.50
2019-02-05T18:52:59.685Z,17.07
2019-02-05T18:55:42.759Z,16.97
2019-02-05T18:58:33.179Z,17.13
2019-02-05T19:01:16.386Z,16.70
2019-02-05T19:04:06.895Z,18.03
2019-02-05T19:06:49.656Z,17.63
2019-02-05T19:09:40.072Z,17.73
2019-02-05T19:12:23.194Z,18.07
2019-02-05T19:15:33.438Z,17.87
2019-02-05T19:18:16.857Z,16.43
2019-02-05T19:21:07.273Z,17.57
2019-02-05T19:23:52.593Z,17.27
2019-02-05T19:26:48.079Z,17.67
2019-02-05T19:29:32.077Z,17.03
2019-02-05T19:35:35.740Z,14.93
2019-02-05T19:38:26.799Z,15.90
2019-02-05T19:41:10.720Z,15.47
2019-02-05T19:44:01.693Z,16.03
2019-02-05T19:46:57.250Z,15.33
2019-02-05T19:50:09.385Z,14.97
2019-02-05T19:53:13.790Z,16.07
2019-02-05T19:56:04.807Z,15.73
2019-02-05T19:59:09.535Z,14.63
2019-02-05T20:02:00.606Z,14.60
2019-02-05T20:04:44.624Z,14.67
2019-02-05T20:07:36.479Z,14.10
2019-02-05T20:10:40.865Z,14.87
2019-02-05T20:13:39.902Z,15.47
2019-02-05T20:16:36.069Z,13.57
2019-02-05T20:19:27.041Z,14.77
2019-02-05T20:22:10.869Z,14.30
2019-02-05T20:25:01.807Z,14.67
2019-02-05T20:27:46.017Z,13.60
2019-02-05T20:30:36.967Z,14.33
2019-02-05T20:33:21.105Z,14.40
2019-02-05T20:36:12.113Z,14.87
2019-02-05T20:38:55.427Z,14.73
2019-02-05T20:41:46.429Z,14.50
2019-02-05T20:44:29.696Z,15.07
2019-02-05T20:47:20.721Z,14.37
2019-02-05T20:50:05.306Z,14.27
2019-02-05T20:52:56.501Z,13.37
2019-02-05T20:55:39.921Z,14.23
2019-02-05T20:58:31.123Z,13.83
2019-02-05T21:01:35.299Z,13.30
2019-02-05T21:04:26.313Z,13.43
2019-02-05T21:07:09.706Z,13.50
2019-02-05T21:10:00.692Z,14.50
2019-02-05T21:12:44.246Z,14.07
2019-02-05T21:15:35.371Z,12.77
2019-02-05T21:18:19.099Z,13.17
2019-02-05T21:21:10.068Z,12.97
2019-02-05T21:23:53.338Z,12.83
2019-02-05T21:26:44.366Z,12.57
2019-02-05T21:29:27.865Z,13.07
2019-02-05T21:32:18.857Z,12.67
2019-02-05T21:35:02.480Z,12.40
2019-02-05T21:37:53.423Z,12.20
2019-02-05T21:40:37.263Z,13.40
2019-02-05T21:43:28.264Z,12.73
2019-02-05T21:46:11.857Z,13.13
2019-02-05T21:49:02.819Z,11.90
2019-02-05T21:51:46.240Z,12.37
2019-02-05T21:54:37.243Z,12.00
2019-02-05T21:57:21.132Z,12.10
2019-02-05T22:00:55.982Z,12.50
2019-02-05T22:04:01.158Z,11.17
2019-02-05T22:06:52.182Z,10.90
2019-02-05T22:09:35.633Z,10.20
2019-02-05T22:12:26.727Z,11.27
2019-02-05T22:14:58.583Z,11.37
2019-02-05T22:17:50.059Z,10.97
2019-02-05T22:20:33.494Z,11.33
2019-02-05T22:23:24.588Z,10.57
2019-02-05T22:26:08.469Z,10.57
2019-02-05T22:28:59.408Z,11.10
2019-02-05T22:31:43.352Z,10.57
2019-02-05T22:34:39.207Z,11.23
2019-02-05T22:37:38.643Z,10.27
2019-02-05T22:40:29.635Z,10.17
2019-02-05T22:43:12.990Z,11.17
2019-02-05T22:46:03.974Z,10.93
2019-02-05T22:49:08.226Z,10.73
2019-02-05T22:51:51.647Z,11.07
2019-02-05T22:54:42.687Z,10.30
2019-02-05T22:57:26.026Z,10.33
2019-02-05T23:04:23.451Z,10.43
2019-02-05T23:07:11.369Z,11.33
2019-02-05T23:10:40.417Z,9.87
2019-02-05T23:13:24.324Z,10.67
2019-02-05T23:16:15.633Z,11.47
2019-02-05T23:18:58.951Z,10.20
2019-02-05T23:21:49.842Z,10.13
2019-02-05T23:24:33.730Z,9.93
2019-02-05T23:27:24.633Z,9.97
2019-02-05T23:30:12.394Z,9.43
2019-02-05T23:33:03.303Z,10.07
2019-02-05T23:35:46.708Z,10.40
2019-02-05T23:38:38.243Z,9.63
2019-02-05T23:41:21.450Z,10.13
2019-02-05T23:44:12.391Z,10.20
2019-02-05T23:46:55.975Z,10.13
2019-02-05T23:49:46.908Z,9.37
2019-02-05T23:52:30.307Z,9.23
2019-02-05T23:55:21.596Z,9.40
2019-02-05T23:58:05.638Z,8.10
